Time;durP1;ratioP1;P1;durP2;ratioP2;P2;SDS_P1;SDS_P2;PMS_P1;PMS_P2;Temp;Humidity;BMP_temperature;BMP_pressure;BME280_temperature;BME280_humidity;BME280_pressure;Samples;Min_cycle;Max_cycle;Signal;HPM_P1;HPM_P2
2021/03/03 00:51:04;;;;;;;29.15;11.10;;;;;;;0.35;74.04;100738.25;1669822;81;20202;31
2021/03/03 03:20:59;;;;;;;32.40;13.05;;;;;;;-0.85;77.17;100719.28;1670591;82;21187;31
2021/03/03 03:48:16;;;;;;;28.95;11.25;;;;;;;-1.12;79.26;100726.09;1658596;82;21172;31
2021/03/03 03:57:53;;;;;;;36.65;14.70;;;;;;;-1.14;78.03;100722.59;1748480;77;21290;31
2021/03/03 04:11:11;;;;;;;39.83;14.78;;;;;;;-1.24;77.86;100714.02;1718847;78;21342;31
2021/03/03 04:21:22;;;;;;;44.45;16.30;;;;;;;-1.28;77.58;100705.74;1781279;76;21139;-83
2021/03/03 04:24:41;;;;;;;42.13;14.33;;;;;;;-1.34;77.83;100710.55;1745958;77;21620;31
2021/03/03 04:27:55;;;;;;;47.13;14.35;;;;;;;-1.36;76.99;100715.58;1688767;80;21226;31
2021/03/03 04:37:17;;;;;;;39.60;13.35;;;;;;;-1.41;78.22;100719.59;1732982;77;22529;31
2021/03/03 04:46:37;;;;;;;47.45;15.88;;;;;;;-1.44;82.00;100717.74;1780018;76;21284;31
2021/03/03 04:49:53;;;;;;;36.42;13.90;;;;;;;-1.46;79.86;100716.80;1688621;79;22884;31
2021/03/03 04:59:20;;;;;;;36.65;13.83;;;;;;;-1.59;81.88;100711.91;1670642;79;21147;-82
2021/03/03 05:02:28;;;;;;;46.00;15.97;;;;;;;-1.59;81.07;100709.36;1598296;84;21211;31
2021/03/03 05:08:56;;;;;;;36.00;11.00;;;;;;;-1.58;80.80;100714.92;1717802;78;21174;-82
2021/03/03 05:12:29;;;;;;;35.85;12.85;;;;;;;-1.57;81.03;100720.89;1724804;81;21893;-83
2021/03/03 05:18:57;;;;;;;29.98;12.05;;;;;;;-1.54;81.89;100718.09;1711251;79;22530;31
2021/03/03 05:26:08;;;;;;;33.38;11.78;;;;;;;-1.51;82.34;100728.84;1698111;79;22554;31
2021/03/03 05:39:05;;;;;;;31.37;12.55;;;;;;;-1.45;83.04;100731.31;1778281;76;21133;31
2021/03/03 05:45:07;;;;;;;37.75;13.32;;;;;;;-1.37;81.04;100735.91;1780347;77;21221;31
2021/03/03 06:54:27;;;;;;;34.23;12.82;;;;;;;0.29;78.76;100737.99;1598674;86;21321;-82
2021/03/03 06:56:57;;;;;;;30.35;12.73;;;;;;;0.37;79.05;100735.35;1633396;82;21333;-83
2021/03/03 06:59:33;;;;;;;36.85;14.78;;;;;;;0.45;79.08;100738.23;1651675;84;21246;-83
2021/03/03 07:02:08;;;;;;;34.10;14.70;;;;;;;0.51;80.37;100738.91;1629595;85;21286;-83
2021/03/03 07:04:40;;;;;;;32.38;11.43;;;;;;;0.62;80.60;100732.94;1659886;80;21259;-81
2021/03/03 07:07:18;;;;;;;29.50;11.68;;;;;;;0.74;80.52;100728.34;1703074;80;21331;-84
2021/03/03 07:23:45;;;;;;;40.45;16.80;;;;;;;1.63;78.44;100720.66;1737347;77;28493;-84
2021/03/03 07:26:20;;;;;;;31.20;13.28;;;;;;;1.74;77.76;100718.96;1725148;79;21459;-81
2021/03/03 07:28:49;;;;;;;32.63;13.53;;;;;;;1.87;77.41;100720.68;1765802;79;21254;-83
2021/03/03 07:31:17;;;;;;;32.83;14.28;;;;;;;1.95;77.25;100716.70;1736949;80;21315;-84
2021/03/03 07:33:45;;;;;;;34.48;14.47;;;;;;;2.03;76.44;100712.73;1714964;79;21377;-83
2021/03/03 07:39:25;;;;;;;36.63;13.95;;;;;;;2.13;76.71;100709.67;1652474;85;21310;-84
2021/03/03 07:45:43;;;;;;;39.40;13.35;;;;;;;2.33;76.24;100701.37;1694306;80;21286;-84
2021/03/03 07:48:53;;;;;;;37.03;13.00;;;;;;;2.47;75.65;100697.98;1694570;82;21427;-84
2021/03/03 07:51:25;;;;;;;32.67;12.88;;;;;;;2.69;76.71;100694.42;1711114;78;21247;-85
2021/03/03 07:54:47;;;;;;;24.57;10.58;;;;;;;2.85;76.30;100703.91;1672710;79;21276;-83
2021/03/03 07:57:52;;;;;;;32.93;10.70;;;;;;;2.99;75.37;100686.81;1709780;78;21183;-85
2021/03/03 08:06:41;;;;;;;27.82;10.10;;;;;;;3.59;74.01;100690.30;1613899;86;21340;-89
2021/03/03 08:09:22;;;;;;;25.00;10.40;;;;;;;3.76;73.21;100674.03;1640004;84;21335;-91
2021/03/03 08:12:32;;;;;;;20.72;9.73;;;;;;;3.94;72.11;100670.70;1648056;84;21215;-90
2021/03/03 08:18:38;;;;;;;26.37;10.40;;;;;;;4.29;71.01;100668.17;1624802;86;21205;-91
2021/03/03 08:21:28;;;;;;;23.55;10.40;;;;;;;4.47;70.29;100665.61;1623076;84;21277;-88
2021/03/03 08:25:14;;;;;;;24.95;9.73;;;;;;;4.52;70.40;100635.27;1671386;83;21351;-91
2021/03/03 08:28:35;;;;;;;26.00;9.88;;;;;;;4.84;68.64;100658.78;1696341;82;21518;-81
2021/03/03 08:31:24;;;;;;;22.75;9.08;;;;;;;5.01;68.29;100654.86;1726193;80;21313;-82
2021/03/03 08:34:19;;;;;;;25.80;9.40;;;;;;;5.16;68.78;100653.05;1702581;81;21237;-90
2021/03/03 08:36:54;;;;;;;21.00;9.18;;;;;;;5.28;67.37;100644.71;1668929;83;21200;-89
2021/03/03 08:39:32;;;;;;;23.95;9.48;;;;;;;5.46;67.31;100638.64;1651063;82;21144;-87
2021/03/03 08:42:08;;;;;;;24.75;9.43;;;;;;;5.64;66.26;100637.27;1698699;82;21992;-90
2021/03/03 08:47:52;;;;;;;23.83;8.93;;;;;;;5.90;64.19;100630.88;1669094;83;21156;-86
2021/03/03 08:50:41;;;;;;;23.18;9.30;;;;;;;6.10;66.08;100623.95;1687932;83;21463;-86
2021/03/03 08:53:55;;;;;;;19.55;8.70;;;;;;;6.32;65.87;100623.47;1686319;80;21166;-86
2021/03/03 08:56:47;;;;;;;19.92;9.00;;;;;;;6.56;62.63;100619.15;1731391;80;21350;-84
2021/03/03 08:59:42;;;;;;;20.10;8.40;;;;;;;6.74;64.00;100612.50;1688301;83;21175;-83
2021/03/03 09:02:18;;;;;;;22.07;8.80;;;;;;;6.93;62.05;100604.59;1649710;84;21130;-83
2021/03/03 09:04:56;;;;;;;18.87;8.30;;;;;;;7.12;61.15;100608.28;1686093;83;21295;-82
2021/03/03 09:07:31;;;;;;;18.77;8.43;;;;;;;7.29;61.55;100602.91;1702856;82;21307;-81
2021/03/03 09:10:10;;;;;;;20.10;9.10;;;;;;;7.52;59.84;100602.30;1696828;82;21263;-83
2021/03/03 09:12:43;;;;;;;24.67;8.93;;;;;;;7.68;59.74;100602.05;1707818;82;21246;-81
2021/03/03 09:15:15;;;;;;;21.30;9.03;;;;;;;7.84;60.05;100592.31;1711065;83;21250;-84
2021/03/03 09:17:45;;;;;;;20.48;8.43;;;;;;;8.03;60.00;100582.98;1704336;82;21174;-82
2021/03/03 09:20:17;;;;;;;22.50;9.40;;;;;;;8.23;58.46;100579.70;1704264;83;21325;-81
2021/03/03 09:22:47;;;;;;;17.40;7.97;;;;;;;8.44;56.33;100582.94;1719770;82;21301;-83
2021/03/03 09:25:21;;;;;;;21.90;9.08;;;;;;;8.60;57.58;100587.37;1727694;81;21404;-82
2021/03/03 09:28:16;;;;;;;23.07;8.33;;;;;;;8.74;55.89;100575.34;1706823;82;21214;-85
2021/03/03 09:30:50;;;;;;;19.80;9.00;;;;;;;8.93;56.37;100572.85;1672827;81;21364;-85
2021/03/03 09:33:17;;;;;;;29.30;8.93;;;;;;;9.07;53.60;100569.92;1631406;85;21630;-86
2021/03/03 09:35:46;;;;;;;24.23;8.55;;;;;;;9.19;53.07;100572.11;1641082;86;21416;-82
2021/03/03 09:38:16;;;;;;;23.77;8.70;;;;;;;9.29;53.64;100568.69;1598349;88;21353;-81
2021/03/03 09:40:48;;;;;;;30.02;9.70;;;;;;;9.40;51.58;100572.64;1602759;88;21451;-86
2021/03/03 09:43:25;;;;;;;21.97;10.18;;;;;;;9.52;52.61;100578.72;1587171;87;21223;-85
2021/03/03 09:46:07;;;;;;;25.57;9.25;;;;;;;9.64;54.51;100577.03;1566593;89;21286;-83
2021/03/03 09:48:36;;;;;;;25.65;10.05;;;;;;;9.74;54.36;100579.64;1661498;85;21260;-84
2021/03/03 09:51:06;;;;;;;24.32;10.40;;;;;;;9.87;54.23;100573.19;1624197;87;21178;-84
2021/03/03 09:56:39;;;;;;;25.17;10.53;;;;;;;10.10;51.33;100575.35;1637423;86;21320;-84
2021/03/03 09:59:10;;;;;;;28.30;10.08;;;;;;;10.23;53.48;100570.19;1572761;88;21382;-85
2021/03/03 10:01:40;;;;;;;26.80;10.45;;;;;;;10.32;51.15;100576.25;1590509;87;21293;-85
2021/03/03 10:04:18;;;;;;;22.22;9.03;;;;;;;10.41;50.81;100572.80;1582768;89;21232;-86
2021/03/03 10:07:24;;;;;;;23.12;10.10;;;;;;;10.49;51.90;100571.05;1594597;87;21286;-84
2021/03/03 10:09:59;;;;;;;25.20;10.50;;;;;;;10.60;49.58;100573.63;1607578;87;21345;-81
2021/03/03 10:12:37;;;;;;;22.87;8.95;;;;;;;10.71;51.25;100571.02;1610775;87;21361;-83
2021/03/03 10:15:10;;;;;;;23.20;9.63;;;;;;;10.78;50.50;100567.52;1629574;87;21432;-83
2021/03/03 10:17:57;;;;;;;20.15;8.95;;;;;;;10.86;50.43;100562.30;1622035;87;21242;-84
2021/03/03 10:21:00;;;;;;;20.60;9.60;;;;;;;10.92;49.85;100556.67;1579105;82;21270;-91
2021/03/03 10:24:15;;;;;;;26.27;9.68;;;;;;;10.99;50.17;100546.23;1607203;87;21208;-94
2021/03/03 10:26:55;;;;;;;22.02;10.03;;;;;;;11.18;50.54;100551.80;1651110;83;22500;-91
2021/03/03 10:29:37;;;;;;;25.48;10.85;;;;;;;11.30;48.37;100555.65;1666810;84;21447;-87
2021/03/03 10:32:12;;;;;;;27.35;9.85;;;;;;;11.44;49.15;100552.08;1666707;84;21343;-84
2021/03/03 10:34:44;;;;;;;34.73;10.35;;;;;;;11.54;48.15;100533.81;1693098;82;21332;-84
2021/03/03 10:37:26;;;;;;;40.33;11.25;;;;;;;11.66;49.30;100539.38;1692618;83;21330;-81
2021/03/03 10:39:54;;;;;;;22.07;10.72;;;;;;;11.77;47.87;100537.14;1671535;83;21162;-82
2021/03/03 10:42:24;;;;;;;20.02;10.48;;;;;;;11.85;48.11;100532.73;1689611;83;21282;-83
2021/03/03 10:44:53;;;;;;;22.82;9.93;;;;;;;11.95;46.85;100530.52;1677629;83;21220;-83
2021/03/03 10:50:23;;;;;;;23.35;10.80;;;;;;;12.22;46.04;100522.05;1774751;79;23526;-86
2021/03/03 10:53:03;;;;;;;28.25;10.72;;;;;;;12.29;46.42;100522.41;1764063;80;21176;-85
2021/03/03 10:55:38;;;;;;;27.93;10.82;;;;;;;12.47;46.59;100518.34;1767579;81;21185;-82
2021/03/03 10:58:15;;;;;;;25.72;10.63;;;;;;;12.69;46.30;100510.25;1780133;79;21613;-82
2021/03/03 11:01:01;;;;;;;24.52;10.70;;;;;;;12.82;45.60;100508.39;1769539;80;21132;-83
2021/03/03 11:03:31;;;;;;;22.17;10.50;;;;;;;12.99;45.74;100504.25;1765266;80;21301;-84
2021/03/03 11:05:59;;;;;;;27.10;10.50;;;;;;;13.10;45.60;100497.16;1757813;79;21173;-82
2021/03/03 11:08:29;;;;;;;23.40;10.23;;;;;;;13.17;43.24;100493.59;1741813;81;21732;-80
2021/03/03 11:11:06;;;;;;;34.78;10.60;;;;;;;13.23;43.21;100488.28;1734115;81;21629;-82
2021/03/03 11:13:38;;;;;;;28.42;9.83;;;;;;;13.31;42.42;100488.22;1741392;81;21277;-85
2021/03/03 11:16:07;;;;;;;28.20;10.15;;;;;;;13.43;42.46;100477.59;1747259;81;21165;-86
2021/03/03 11:18:40;;;;;;;27.05;10.32;;;;;;;13.65;44.49;100482.49;1724103;80;22656;-82
2021/03/03 11:21:09;;;;;;;25.62;10.80;;;;;;;13.73;42.39;100478.86;1659302;85;21296;-82
2021/03/03 11:23:38;;;;;;;25.15;10.88;;;;;;;13.78;40.72;100468.32;1685038;84;21218;-81
2021/03/03 11:26:07;;;;;;;29.77;11.22;;;;;;;13.90;42.16;100459.41;1689056;84;21878;-82
2021/03/03 11:28:35;;;;;;;24.07;10.32;;;;;;;14.05;40.67;100464.39;1651869;86;21224;-82
2021/03/03 11:31:04;;;;;;;29.30;10.30;;;;;;;14.09;42.46;100461.28;1678476;84;21540;-84
2021/03/03 11:33:33;;;;;;;31.40;10.03;;;;;;;14.26;40.29;100454.42;1691902;84;21586;-83
2021/03/03 11:36:01;;;;;;;24.67;9.38;;;;;;;14.36;40.94;100451.19;1688116;84;21572;-85
2021/03/03 11:38:29;;;;;;;22.70;9.65;;;;;;;14.45;39.79;100452.33;1679953;84;21282;-85
2021/03/03 11:40:57;;;;;;;22.50;9.10;;;;;;;14.60;38.48;100444.19;1684430;84;21354;-84
2021/03/03 11:43:27;;;;;;;23.77;8.58;;;;;;;14.74;37.70;100438.67;1669199;85;21609;-82
2021/03/03 11:46:03;;;;;;;26.68;9.95;;;;;;;14.79;35.84;100435.52;1677258;84;21206;-85
2021/03/03 11:48:31;;;;;;;32.70;10.32;;;;;;;15.10;39.55;100427.88;1676091;84;21377;-87
2021/03/03 11:51:00;;;;;;;26.10;9.68;;;;;;;15.47;38.18;100422.22;1679190;84;21270;-81
2021/03/03 11:56:40;;;;;;;23.87;9.68;;;;;;;16.80;34.21;100409.92;1735136;79;21196;-89
2021/03/03 11:59:13;;;;;;;21.75;9.38;;;;;;;17.66;35.61;100412.95;1750735;78;21185;-87
2021/03/03 12:05:13;;;;;;;34.50;12.15;;;;;;;18.92;31.21;100407.20;1682040;82;21337;-87
2021/03/03 12:07:43;;;;;;;25.43;11.40;;;;;;;19.89;35.58;100386.59;1671859;82;21537;-87
2021/03/03 12:10:28;;;;;;;27.17;10.38;;;;;;;20.26;33.50;100389.33;1659424;82;21293;-89
2021/03/03 12:13:06;;;;;;;25.35;11.88;;;;;;;20.82;31.62;100386.36;1663046;86;21281;-85
2021/03/03 12:15:36;;;;;;;32.30;10.35;;;;;;;21.35;31.08;100382.55;1660915;86;21150;-84
2021/03/03 12:18:09;;;;;;;25.00;11.88;;;;;;;21.77;32.01;100376.91;1666657;84;21208;-85
2021/03/03 12:20:41;;;;;;;31.55;12.23;;;;;;;22.16;30.13;100367.84;1668444;82;21122;-83
2021/03/03 12:23:11;;;;;;;20.65;10.58;;;;;;;22.66;30.11;100362.11;1788789;77;21239;-86
2021/03/03 12:25:39;;;;;;;29.67;12.30;;;;;;;22.98;28.96;100357.64;1786896;79;21357;-85
2021/03/03 12:28:17;;;;;;;22.73;12.05;;;;;;;23.40;27.47;100352.16;1788668;79;21309;-89
2021/03/03 12:30:48;;;;;;;26.73;11.93;;;;;;;23.58;27.50;100350.70;1746747;81;21169;-87
2021/03/03 12:33:19;;;;;;;35.75;16.40;;;;;;;23.73;22.33;100351.58;1743489;81;21309;-88
2021/03/03 12:35:53;;;;;;;44.98;23.83;;;;;;;24.13;26.51;100350.52;1748086;81;21244;-85
2021/03/03 12:45:33;;;;;;;59.45;34.98;;;;;;;24.83;20.28;100341.27;1659453;85;21210;-88
2021/03/03 12:58:14;;;;;;;61.20;42.23;;;;;;;25.34;21.45;100326.81;1767688;78;21209;-90
2021/03/03 13:01:00;;;;;;;22.98;13.38;;;;;;;24.99;18.14;100323.34;1733409;79;21136;-89
2021/03/03 13:04:03;;;;;;;24.63;9.63;;;;;;;25.34;20.40;100314.00;1742375;81;21815;-87
2021/03/03 13:06:36;;;;;;;18.77;10.10;;;;;;;25.40;18.47;100313.58;1788738;80;21231;-87
2021/03/03 13:09:09;;;;;;;23.40;11.90;;;;;;;25.48;19.94;100317.91;1770057;79;21287;-87
2021/03/03 13:11:44;;;;;;;19.60;9.00;;;;;;;25.72;21.35;100311.37;1779780;80;21924;-88
2021/03/03 13:14:31;;;;;;;17.05;8.30;;;;;;;25.79;18.26;100310.48;1759549;80;21261;-90
2021/03/03 13:17:37;;;;;;;16.85;8.15;;;;;;;25.42;18.24;100307.67;1664859;84;21284;-88
2021/03/03 13:20:54;;;;;;;;;;;;;;;;;;;;;
2021/03/03 13:23:24;;;;;;;17.67;9.13;;;;;;;25.85;18.10;100299.41;1710504;78;21119;-88
2021/03/03 13:25:56;;;;;;;25.27;8.68;;;;;;;26.26;19.29;100290.34;1756668;80;21279;-87
2021/03/03 13:28:30;;;;;;;21.68;9.53;;;;;;;26.25;17.16;100293.11;1818684;79;21317;-89
2021/03/03 13:34:50;;;;;;;21.68;10.90;;;;;;;26.13;19.26;100277.52;1759035;79;21140;-84
2021/03/03 13:41:19;;;;;;;18.75;9.60;;;;;;;26.66;19.00;100268.80;1651386;84;22189;-89
2021/03/03 13:43:57;;;;;;;20.77;9.28;;;;;;;26.65;17.72;100274.25;1622128;86;21338;-89
2021/03/03 13:56:44;;;;;;;21.23;8.75;;;;;;;27.10;18.72;100253.11;1649467;83;21156;-90
2021/03/03 14:00:33;;;;;;;;;;;;;;;;;;;;;
2021/03/03 14:06:24;;;;;;;17.92;9.90;;;;;;;26.64;15.97;100247.19;1774660;77;21125;-89
2021/03/03 14:09:49;;;;;;;24.37;9.53;;;;;;;26.98;17.96;100246.39;1734448;77;21101;-89
2021/03/03 14:13:06;;;;;;;21.70;10.15;;;;;;;26.83;18.45;100246.20;1669961;81;22555;31
2021/03/03 14:15:38;;;;;;;23.83;10.50;;;;;;;26.83;18.76;100243.53;1634576;82;21310;-86
2021/03/03 14:18:16;;;;;;;20.45;10.32;;;;;;;25.97;18.89;100242.62;1647039;82;21359;-88
2021/03/03 14:21:22;;;;;;;26.87;10.58;;;;;;;25.88;17.92;100237.91;1624100;84;21134;-89
2021/03/03 14:27:36;;;;;;;42.73;11.38;;;;;;;26.26;17.37;100228.16;1613389;87;21234;-90
2021/03/03 14:30:10;;;;;;;26.30;10.35;;;;;;;26.38;19.17;100229.92;1595571;87;22717;-84
2021/03/03 14:32:51;;;;;;;35.17;10.88;;;;;;;25.82;17.49;100222.84;1507145;95;21279;-86
2021/03/03 14:35:25;;;;;;;30.68;12.00;;;;;;;25.30;19.17;100225.52;1533305;90;21209;-87
2021/03/03 14:38:06;;;;;;;22.48;11.40;;;;;;;24.55;19.04;100225.19;1514870;89;21222;-88
2021/03/03 14:40:47;;;;;;;30.12;12.10;;;;;;;23.85;19.87;100223.41;1531065;89;21364;-86
2021/03/03 14:54:16;;;;;;;32.15;11.50;;;;;;;20.02;23.48;100205.66;1793092;77;22207;-84
2021/03/03 14:56:45;;;;;;;27.00;12.40;;;;;;;19.50;24.08;100206.20;1684734;83;21181;-88
2021/03/03 14:59:39;;;;;;;26.42;11.55;;;;;;;19.16;24.73;100203.73;1693001;83;21678;-85
2021/03/03 15:02:24;;;;;;;33.18;14.05;;;;;;;18.86;25.84;100203.22;1679855;83;21226;-84
2021/03/03 15:04:53;;;;;;;31.37;12.05;;;;;;;18.58;25.46;100191.61;1672256;84;21765;-82
2021/03/03 15:07:21;;;;;;;28.20;11.65;;;;;;;18.40;25.78;100189.27;1682006;83;21730;-81
2021/03/03 15:09:50;;;;;;;31.12;11.03;;;;;;;18.37;27.05;100192.89;1680576;83;21165;-83
2021/03/03 15:12:19;;;;;;;22.27;10.28;;;;;;;18.51;26.96;100178.32;1680684;84;21345;-85
2021/03/03 15:14:48;;;;;;;29.30;12.25;;;;;;;18.58;26.88;100195.56;1642888;85;21262;-81
2021/03/03 15:17:17;;;;;;;29.20;13.05;;;;;;;18.74;27.05;100189.21;1636254;84;21310;-85
2021/03/03 15:19:46;;;;;;;27.82;11.83;;;;;;;18.76;27.09;100188.25;1639060;85;21233;-86
2021/03/03 15:22:14;;;;;;;28.32;10.60;;;;;;;18.46;26.94;100192.53;1666224;85;21146;-84
2021/03/03 15:24:43;;;;;;;33.80;12.45;;;;;;;18.49;27.40;100186.27;1655964;85;21248;-86
2021/03/03 15:27:11;;;;;;;28.83;13.00;;;;;;;18.51;27.32;100190.17;1675952;84;21289;-86
2021/03/03 15:29:40;;;;;;;30.35;11.97;;;;;;;18.29;27.57;100188.39;1677444;83;21203;-83
2021/03/03 15:32:08;;;;;;;25.92;11.18;;;;;;;18.11;27.54;100179.91;1677949;83;21330;-84
2021/03/03 15:34:37;;;;;;;27.42;10.23;;;;;;;17.80;27.77;100186.29;1664384;85;21260;-83
2021/03/03 15:37:08;;;;;;;28.92;9.85;;;;;;;17.67;27.80;100184.59;1673487;85;21204;-87
2021/03/03 15:39:39;;;;;;;24.35;9.73;;;;;;;17.44;27.72;100180.16;1654005;85;21307;-86
2021/03/03 15:42:34;;;;;;;26.33;9.25;;;;;;;16.94;28.54;100180.17;1661158;86;21338;-85
2021/03/03 15:45:12;;;;;;;28.65;9.53;;;;;;;16.78;28.46;100174.08;1656012;84;21224;-87
2021/03/03 15:48:34;;;;;;;39.35;10.90;;;;;;;16.47;29.01;100166.34;1680999;80;21253;31
2021/03/03 15:51:04;;;;;;;28.45;10.32;;;;;;;16.27;29.01;100169.17;1617103;87;21261;-92
2021/03/03 15:53:32;;;;;;;29.45;10.63;;;;;;;16.00;29.46;100164.78;1685591;84;21213;-90
2021/03/03 15:56:00;;;;;;;30.60;10.30;;;;;;;15.79;29.48;100163.64;1672972;84;21660;-86
2021/03/03 15:58:28;;;;;;;28.10;9.63;;;;;;;15.56;30.58;100163.83;1620471;86;21271;-88
2021/03/03 16:00:58;;;;;;;37.67;12.93;;;;;;;15.35;29.87;100161.35;1625901;87;21372;-84
2021/03/03 16:03:55;;;;;;;38.53;13.50;;;;;;;15.10;30.20;100162.03;1657532;84;21206;-90
2021/03/03 16:06:23;;;;;;;27.37;11.22;;;;;;;14.83;30.11;100163.59;1627001;85;21245;-90
2021/03/03 16:08:51;;;;;;;26.97;11.40;;;;;;;14.58;31.08;100167.27;1696281;82;21325;-90
2021/03/03 16:11:51;;;;;;;30.48;11.25;;;;;;;14.41;31.18;100167.66;1665464;83;21132;-87
2021/03/03 16:14:47;;;;;;;32.33;12.58;;;;;;;14.18;32.24;100156.86;1609138;86;21588;-93
2021/03/03 16:17:17;;;;;;;36.03;13.65;;;;;;;14.00;32.42;100169.91;1641715;82;21499;-90
2021/03/03 16:19:48;;;;;;;30.75;13.93;;;;;;;13.84;32.12;100168.92;1619022;83;21354;-88
2021/03/03 16:22:16;;;;;;;36.50;15.00;;;;;;;13.66;33.05;100164.09;1664313;84;21371;-91
2021/03/03 16:25:15;;;;;;;34.20;13.45;;;;;;;13.49;34.29;100169.22;1694499;81;21163;-87
2021/03/03 16:27:44;;;;;;;44.42;16.57;;;;;;;13.29;33.98;100168.69;1682203;83;21274;-89
2021/03/03 16:33:37;;;;;;;63.85;22.52;;;;;;;12.99;32.84;100177.53;1642065;82;21365;-90
2021/03/03 16:36:08;;;;;;;73.15;24.30;;;;;;;12.76;34.44;100170.54;1688003;80;21327;-92
2021/03/03 16:38:36;;;;;;;49.85;18.45;;;;;;;12.61;33.93;100179.02;1774966;79;21148;-92
2021/03/03 16:41:03;;;;;;;51.45;17.75;;;;;;;12.43;35.13;100178.86;1762983;79;21590;-90
2021/03/03 16:43:31;;;;;;;66.17;17.98;;;;;;;12.15;34.41;100153.64;1783858;79;21359;-83
2021/03/03 16:46:01;;;;;;;51.88;16.65;;;;;;;12.13;34.86;100179.73;1732103;80;21295;-86
2021/03/03 16:48:30;;;;;;;54.05;19.32;;;;;;;11.98;35.50;100185.17;1743780;80;21315;-86
2021/03/03 16:51:32;;;;;;;50.45;17.15;;;;;;;11.83;34.88;100180.13;1655649;84;21320;-92
2021/03/03 16:54:00;;;;;;;53.92;17.52;;;;;;;11.63;37.09;100185.58;1637397;87;21206;-93
2021/03/03 17:00:11;;;;;;;47.75;17.90;;;;;;;11.38;36.41;100179.78;1675370;83;21236;-87
2021/03/03 17:02:57;;;;;;;57.70;18.82;;;;;;;11.17;39.40;100185.65;1627003;83;21435;-90
2021/03/03 17:05:28;;;;;;;50.60;19.42;;;;;;;11.04;37.75;100194.45;1640475;83;21242;-89
2021/03/03 17:07:56;;;;;;;52.80;18.17;;;;;;;10.89;39.36;100187.21;1637677;86;21258;-88
2021/03/03 17:10:24;;;;;;;53.20;16.87;;;;;;;10.79;40.42;100183.41;1643858;86;21283;-91
2021/03/03 17:12:51;;;;;;;55.28;18.23;;;;;;;10.66;38.85;100187.84;1647478;85;21203;-90
2021/03/03 17:15:21;;;;;;;65.12;24.18;;;;;;;10.50;39.35;100188.39;1653606;84;21219;-92
2021/03/03 17:21:39;;;;;;;83.15;28.10;;;;;;;10.18;41.49;100183.38;1593969;87;21252;-93
2021/03/03 17:24:14;;;;;;;93.67;34.00;;;;;;;10.00;42.91;100182.61;1602663;88;21402;-92
2021/03/03 17:26:42;;;;;;;81.50;31.05;;;;;;;9.85;40.98;100181.41;1570015;90;21264;-93
2021/03/03 17:29:10;;;;;;;105.50;36.60;;;;;;;9.71;42.81;100183.63;1567901;89;21721;-91
2021/03/03 17:31:38;;;;;;;133.45;44.40;;;;;;;9.57;43.12;100180.23;1606070;88;21282;-91
2021/03/03 17:34:06;;;;;;;164.28;45.25;;;;;;;9.44;43.60;100194.10;1576152;90;21213;-92
2021/03/03 17:36:35;;;;;;;120.92;38.53;;;;;;;9.27;45.79;100192.42;1557703;90;21288;-91
2021/03/03 17:39:17;;;;;;;134.40;35.10;;;;;;;9.12;46.84;100198.48;1667458;85;21201;-93
2021/03/03 17:41:45;;;;;;;122.92;36.83;;;;;;;8.95;46.23;100194.63;1665798;85;21209;-92
2021/03/03 17:44:26;;;;;;;129.27;38.15;;;;;;;8.81;48.65;100197.64;1657094;83;21480;-89
2021/03/03 17:46:54;;;;;;;129.82;39.92;;;;;;;8.67;46.27;100192.45;1649667;84;21248;-92
2021/03/03 17:49:22;;;;;;;115.10;36.55;;;;;;;8.53;46.05;100195.08;1655164;83;21174;-92
2021/03/03 17:51:50;;;;;;;102.65;33.13;;;;;;;8.40;47.76;100187.25;1683106;84;21676;-92
2021/03/03 17:54:17;;;;;;;115.40;34.05;;;;;;;8.28;47.68;100194.57;1679549;84;21212;-90
2021/03/03 17:57:20;;;;;;;118.93;37.23;;;;;;;8.16;47.51;100196.27;1749873;79;21187;-90
2021/03/03 17:59:50;;;;;;;132.65;42.50;;;;;;;8.02;47.34;100200.95;1746467;79;21658;-92
2021/03/03 18:02:18;;;;;;;136.12;44.63;;;;;;;7.90;46.51;100191.45;1732594;81;21629;-90
2021/03/03 18:04:46;;;;;;;123.55;42.62;;;;;;;7.81;47.38;100197.88;1775645;80;21224;-88
2021/03/03 18:07:14;;;;;;;124.75;40.50;;;;;;;7.71;50.81;100191.36;1783070;80;21177;-87
2021/03/03 18:09:42;;;;;;;142.77;44.03;;;;;;;7.64;48.58;100191.33;1770100;79;21150;-87
2021/03/03 18:12:11;;;;;;;125.92;42.75;;;;;;;7.55;50.58;100183.95;1779836;80;21280;-83
2021/03/03 18:14:38;;;;;;;137.80;44.50;;;;;;;7.49;51.22;100189.55;1783838;80;21280;-81
2021/03/03 18:17:07;;;;;;;146.05;47.03;;;;;;;7.41;52.56;100185.63;1770831;80;21505;-82
2021/03/03 18:19:36;;;;;;;156.60;47.33;;;;;;;7.33;50.15;100192.05;1762187;79;21320;-84
2021/03/03 18:22:06;;;;;;;123.70;42.35;;;;;;;7.25;53.20;100182.52;1762824;77;21295;-91
2021/03/03 18:24:34;;;;;;;140.95;47.17;;;;;;;7.18;53.80;100177.72;1653841;85;21317;-92
2021/03/03 18:27:02;;;;;;;144.07;45.52;;;;;;;7.10;50.49;100180.69;1688183;83;21825;-92
2021/03/03 18:29:31;;;;;;;128.23;41.45;;;;;;;7.00;50.61;100180.20;1706213;82;21206;-92
2021/03/03 18:32:14;;;;;;;119.17;39.53;;;;;;;6.91;49.74;100174.55;1667353;84;21327;-91
2021/03/03 18:34:45;;;;;;;121.47;39.27;;;;;;;6.82;52.02;100175.33;1664984;85;21328;-92
2021/03/03 18:37:13;;;;;;;130.52;39.30;;;;;;;6.74;50.63;100173.11;1649728;84;21284;-91
2021/03/03 18:39:42;;;;;;;129.53;38.92;;;;;;;6.66;52.80;100170.47;1661186;85;21204;-92
2021/03/03 18:45:38;;;;;;;151.15;43.25;;;;;;;6.55;55.08;100178.14;1668333;85;21301;-92
2021/03/03 18:48:38;;;;;;;134.80;41.10;;;;;;;6.47;51.93;100171.19;1598344;89;21224;-90
2021/03/03 18:51:07;;;;;;;142.18;40.98;;;;;;;6.37;55.01;100165.93;1618550;87;21277;-92
2021/03/03 18:53:49;;;;;;;134.78;40.38;;;;;;;6.32;54.35;100162.86;1588800;88;21219;-92
2021/03/03 18:56:17;;;;;;;130.65;41.13;;;;;;;6.27;53.03;100160.67;1642329;85;21192;-91
2021/03/03 18:58:45;;;;;;;137.97;40.58;;;;;;;6.20;51.23;100162.31;1648347;86;22087;-91
2021/03/03 19:01:13;;;;;;;139.10;41.18;;;;;;;6.15;53.86;100160.98;1657901;85;21188;-91
2021/03/03 19:06:45;;;;;;;130.70;41.30;;;;;;;6.04;56.75;100164.31;1722858;82;21177;-91
2021/03/03 19:09:53;;;;;;;123.95;39.92;;;;;;;5.96;54.81;100168.95;1728519;82;21239;-91
2021/03/03 19:12:21;;;;;;;136.55;43.00;;;;;;;5.94;56.00;100169.77;1711098;82;21342;-91
2021/03/03 19:14:52;;;;;;;135.28;44.67;;;;;;;5.87;53.74;100166.27;1712203;83;21177;-91
2021/03/03 19:22:00;;;;;;;121.02;40.75;;;;;;;5.76;54.58;100160.95;1693942;83;21181;-84
2021/03/03 19:24:29;;;;;;;128.18;41.60;;;;;;;5.69;54.23;100158.28;1731366;81;21284;-92
2021/03/03 19:27:12;;;;;;;139.28;43.55;;;;;;;5.62;54.71;100151.34;1754449;79;21713;-91
2021/03/03 19:29:40;;;;;;;133.35;41.88;;;;;;;5.55;56.17;100159.01;1746431;79;21179;-91
2021/03/03 19:32:09;;;;;;;147.35;43.02;;;;;;;5.51;58.30;100158.92;1752368;79;21198;-92
2021/03/03 19:34:37;;;;;;;147.07;44.23;;;;;;;5.44;57.92;100150.26;1748387;79;21210;-90
2021/03/03 19:37:06;;;;;;;150.22;45.78;;;;;;;5.40;60.58;100150.21;1776161;80;21167;-91
2021/03/03 19:39:56;;;;;;;136.60;43.25;;;;;;;5.32;56.65;100153.55;1635046;86;21307;-91
2021/03/03 19:42:24;;;;;;;145.80;45.40;;;;;;;5.25;57.17;100149.57;1629042;86;21351;-91
2021/03/03 19:44:54;;;;;;;141.70;45.15;;;;;;;5.18;57.29;100149.49;1689011;82;21339;-90
2021/03/03 19:47:22;;;;;;;139.35;42.80;;;;;;;5.12;56.55;100149.84;1676494;83;21196;-90
2021/03/03 19:49:50;;;;;;;136.15;38.05;;;;;;;5.05;55.76;100150.59;1680253;83;21341;-90
2021/03/03 19:52:18;;;;;;;125.90;39.98;;;;;;;4.96;56.35;100145.75;1694928;83;21357;-91
2021/03/03 19:54:47;;;;;;;106.10;37.85;;;;;;;4.91;55.63;100142.22;1708162;82;21198;-93
2021/03/03 20:00:36;;;;;;;120.65;37.15;;;;;;;4.79;56.18;100144.63;1664727;83;21245;-92
2021/03/03 20:03:08;;;;;;;116.53;39.10;;;;;;;4.70;56.90;100141.93;1623236;86;21224;-90
2021/03/03 20:05:50;;;;;;;140.95;40.52;;;;;;;4.63;53.21;100134.94;1728852;80;21390;-90
2021/03/03 20:08:41;;;;;;;122.87;37.98;;;;;;;4.56;57.97;100135.27;1671140;84;21229;-91